createdAt,value
2023-04-28T00:00:49.633Z,1.93
2023-04-28T00:01:51.053Z,1.70
2023-04-28T00:02:52.755Z,1.70
2023-04-28T00:03:55.408Z,1.67
2023-04-28T00:04:58.587Z,1.90
2023-04-28T00:06:00.571Z,1.63
2023-04-28T00:07:02.370Z,1.83
2023-04-28T00:08:03.988Z,2.10
2023-04-28T00:09:05.467Z,1.90
2023-04-28T00:10:07.574Z,2.00
2023-04-28T00:11:11.848Z,1.67
2023-04-28T00:12:13.201Z,1.60
2023-04-28T00:13:14.698Z,1.97
2023-04-28T00:14:16.802Z,1.70
2023-04-28T00:15:20.218Z,1.73
2023-04-28T00:16:21.831Z,1.93
2023-04-28T00:17:23.672Z,1.87
2023-04-28T00:18:25.165Z,1.60
2023-04-28T00:19:26.731Z,1.80
2023-04-28T00:20:28.098Z,1.83
2023-04-28T00:21:30.044Z,2.00
2023-04-28T00:22:31.442Z,1.53
2023-04-28T00:23:34.090Z,1.87
2023-04-28T00:24:36.568Z,1.67
2023-04-28T00:25:38.232Z,1.63
2023-04-28T00:26:39.755Z,1.70
2023-04-28T00:27:41.201Z,1.53
2023-04-28T00:28:42.846Z,1.90
2023-04-28T00:29:44.806Z,1.63
2023-04-28T00:30:47.393Z,1.60
2023-04-28T00:31:48.844Z,1.87
2023-04-28T00:32:50.997Z,1.70
2023-04-28T00:33:52.601Z,4.23
2023-04-28T00:34:54.220Z,1.70
2023-04-28T00:36:01.839Z,1.57
2023-04-28T00:37:04.607Z,1.83
2023-04-28T00:38:06.286Z,1.90
2023-04-28T00:39:07.740Z,1.83
2023-04-28T00:40:09.614Z,2.10
2023-04-28T00:41:11.643Z,2.13
2023-04-28T00:42:16.314Z,1.90
2023-04-28T00:43:18.203Z,2.10
2023-04-28T00:44:19.903Z,2.10
2023-04-28T00:45:21.451Z,1.80
2023-04-28T00:46:28.637Z,1.90
2023-04-28T00:47:30.080Z,1.60
2023-04-28T00:48:32.066Z,1.80
2023-04-28T00:49:35.743Z,1.70
2023-04-28T00:50:37.193Z,1.87
2023-04-28T00:51:39.055Z,1.93
2023-04-28T00:52:41.888Z,1.90
2023-04-28T00:53:44.641Z,1.63
2023-04-28T00:54:47.697Z,3.63
2023-04-28T00:55:50.297Z,1.67
2023-04-28T00:56:51.866Z,1.50
2023-04-28T00:57:56.230Z,1.70
2023-04-28T00:58:58.677Z,11.30
2023-04-28T01:00:00.557Z,1.67
2023-04-28T01:01:06.938Z,2.07
2023-04-28T01:02:08.718Z,1.70
2023-04-28T01:03:19.076Z,2.50
2023-04-28T01:04:21.589Z,1.63
2023-04-28T01:05:25.773Z,1.70
2023-04-28T01:06:28.664Z,2.10
2023-04-28T01:07:32.639Z,1.67
2023-04-28T01:08:36.620Z,2.20
2023-04-28T01:09:41.037Z,1.80
2023-04-28T01:10:45.121Z,2.50
2023-04-28T01:11:55.935Z,1.73
2023-04-28T01:13:16.306Z,2.07
2023-04-28T01:14:18.488Z,1.90
2023-04-28T01:15:21.400Z,2.40
2023-04-28T01:16:26.938Z,2.03
2023-04-28T01:17:28.993Z,1.80
2023-04-28T01:18:32.529Z,2.03
2023-04-28T01:19:34.323Z,4.00
2023-04-28T01:20:36.356Z,3.03
2023-04-28T01:21:38.624Z,2.37
2023-04-28T01:22:49.898Z,1.97
2023-04-28T01:23:52.654Z,2.53
2023-04-28T01:24:54.040Z,2.40
2023-04-28T01:25:56.411Z,1.87
2023-04-28T01:26:58.427Z,2.40
2023-04-28T01:27:59.808Z,3.47
2023-04-28T01:29:02.494Z,2.20
2023-04-28T01:30:04.357Z,2.33
2023-04-28T01:31:06.237Z,2.40
2023-04-28T01:32:07.690Z,2.30
2023-04-28T01:33:10.053Z,3.00
2023-04-28T01:34:11.703Z,2.90
2023-04-28T01:35:13.180Z,2.30
2023-04-28T01:36:14.787Z,2.60
2023-04-28T01:37:18.328Z,2.80
2023-04-28T01:38:19.769Z,2.60
2023-04-28T01:39:21.283Z,2.40
2023-04-28T01:40:22.807Z,2.43
2023-04-28T01:41:25.057Z,2.80
2023-04-28T01:42:26.502Z,2.77
2023-04-28T01:43:28.406Z,3.07
2023-04-28T01:44:29.840Z,2.90
2023-04-28T01:45:31.382Z,3.07
2023-04-28T01:46:34.546Z,3.37
2023-04-28T01:47:36.558Z,2.80
2023-04-28T01:48:38.343Z,2.80
2023-04-28T01:49:40.816Z,2.70
2023-04-28T01:50:42.661Z,3.07
2023-04-28T01:51:44.246Z,3.70
2023-04-28T01:52:46.419Z,3.20
2023-04-28T01:53:48.279Z,4.07
2023-04-28T01:54:50.128Z,3.40
2023-04-28T01:55:51.662Z,3.87
2023-04-28T01:56:53.923Z,3.30
2023-04-28T01:57:58.659Z,4.60
2023-04-28T01:59:01.391Z,3.20
2023-04-28T02:00:04.854Z,4.70
2023-04-28T02:01:09.178Z,3.83
2023-04-28T02:02:10.774Z,5.60
2023-04-28T02:03:12.445Z,3.50
2023-04-28T02:04:14.254Z,3.57
2023-04-28T02:05:16.433Z,4.93
2023-04-28T02:06:17.861Z,3.70
2023-04-28T02:07:19.352Z,4.20
2023-04-28T02:08:21.266Z,3.87
2023-04-28T02:09:22.687Z,3.80
2023-04-28T02:10:25.561Z,4.20
2023-04-28T02:11:26.969Z,3.90
2023-04-28T02:12:31.179Z,4.50
2023-04-28T02:13:36.945Z,5.17
2023-04-28T02:14:38.398Z,5.53
2023-04-28T02:15:43.537Z,4.93
2023-04-28T02:16:44.982Z,4.80
2023-04-28T02:17:46.661Z,4.60
2023-04-28T02:18:49.043Z,4.80
2023-04-28T02:19:56.383Z,4.50
2023-04-28T02:20:57.762Z,4.53
2023-04-28T02:22:00.578Z,4.37
2023-04-28T02:23:02.630Z,4.70
2023-04-28T02:24:04.735Z,4.73
2023-04-28T02:25:06.972Z,4.83
2023-04-28T02:26:12.192Z,4.80
2023-04-28T02:27:13.554Z,4.93
2023-04-28T02:28:15.243Z,4.57
2023-04-28T02:29:16.835Z,5.60
2023-04-28T02:30:18.408Z,5.40
2023-04-28T02:31:27.571Z,5.10
2023-04-28T02:32:29.015Z,5.60
2023-04-28T02:33:30.517Z,5.43
2023-04-28T02:34:32.297Z,4.93
2023-04-28T02:35:33.771Z,5.70
2023-04-28T02:36:36.241Z,6.03
2023-04-28T02:37:37.724Z,5.17
2023-04-28T02:38:41.380Z,5.40
2023-04-28T02:39:43.011Z,5.10
2023-04-28T02:40:44.446Z,5.70
2023-04-28T02:41:46.380Z,5.77
2023-04-28T02:42:47.746Z,5.53
2023-04-28T02:43:49.188Z,6.17
2023-04-28T02:44:50.815Z,5.50
2023-04-28T02:45:52.689Z,6.13
2023-04-28T02:46:54.091Z,5.30
2023-04-28T02:47:55.954Z,5.63
2023-04-28T02:48:57.686Z,6.07
2023-04-28T02:49:59.500Z,5.60
2023-04-28T02:51:01.621Z,5.47
2023-04-28T02:52:03.174Z,5.87
2023-04-28T02:53:04.541Z,5.27
2023-04-28T02:54:06.171Z,5.20
2023-04-28T02:55:08.056Z,5.17
2023-04-28T02:56:09.881Z,5.60
2023-04-28T02:57:11.401Z,5.60
2023-04-28T02:58:13.271Z,6.13
2023-04-28T02:59:14.809Z,6.43
2023-04-28T03:00:16.368Z,6.03
2023-04-28T03:01:21.448Z,6.00
2023-04-28T03:02:23.211Z,5.87
2023-04-28T03:03:25.183Z,6.50
2023-04-28T03:04:27.569Z,6.00
2023-04-28T03:05:29.312Z,6.10
2023-04-28T03:06:31.689Z,6.90
2023-04-28T03:07:34.383Z,5.30
2023-04-28T03:08:36.243Z,6.13
2023-04-28T03:09:37.665Z,11.13
2023-04-28T03:10:39.313Z,6.03
2023-04-28T03:11:41.561Z,5.40
2023-04-28T03:12:43.697Z,5.87
2023-04-28T03:13:45.317Z,6.33
2023-04-28T03:14:46.722Z,6.47
2023-04-28T03:15:48.149Z,6.50
2023-04-28T03:16:50.071Z,5.90
2023-04-28T03:17:52.199Z,5.70
2023-04-28T03:18:53.774Z,6.37
2023-04-28T03:19:55.334Z,6.60
2023-04-28T03:20:57.731Z,6.17
2023-04-28T03:22:00.938Z,6.50
2023-04-28T03:23:02.737Z,7.00
2023-04-28T03:24:05.802Z,5.90
2023-04-28T03:25:08.494Z,5.77
2023-04-28T03:26:18.115Z,6.23
2023-04-28T03:27:19.777Z,6.77
2023-04-28T03:28:21.295Z,7.80
2023-04-28T03:29:24.499Z,5.40
2023-04-28T03:30:26.467Z,6.03
2023-04-28T03:31:28.483Z,7.10
2023-04-28T03:32:29.976Z,6.80
2023-04-28T03:33:31.522Z,6.40
2023-04-28T03:34:34.438Z,6.70
2023-04-28T03:35:36.471Z,7.07
2023-04-28T03:36:37.865Z,6.63
2023-04-28T03:37:46.507Z,7.13
2023-04-28T03:38:48.130Z,6.23
2023-04-28T03:39:49.647Z,6.73
2023-04-28T03:40:51.583Z,6.57
2023-04-28T03:42:28.360Z,6.60
2023-04-28T03:43:42.277Z,7.50
2023-04-28T03:45:11.016Z,6.50
2023-04-28T03:46:12.586Z,6.80
2023-04-28T03:47:14.552Z,7.53
2023-04-28T03:48:18.941Z,6.67
2023-04-28T03:49:20.793Z,6.60
2023-04-28T03:50:23.289Z,7.37
2023-04-28T03:51:27.880Z,6.33
2023-04-28T03:52:29.402Z,7.20
2023-04-28T03:53:31.251Z,7.30
2023-04-28T03:54:32.673Z,6.60
2023-04-28T03:55:35.431Z,6.67
2023-04-28T03:56:36.951Z,7.00
2023-04-28T03:57:38.992Z,7.00
2023-04-28T03:58:41.155Z,7.43
2023-04-28T03:59:42.594Z,7.60
2023-04-28T04:00:45.407Z,7.07
2023-04-28T04:01:46.887Z,6.53
2023-04-28T04:02:48.543Z,7.60
2023-04-28T04:03:51.306Z,7.03
2023-04-28T04:04:53.223Z,7.67
2023-04-28T04:05:55.695Z,7.30
2023-04-28T04:06:57.422Z,7.40
2023-04-28T04:07:59.113Z,7.20
2023-04-28T04:09:00.739Z,6.37
2023-04-28T04:10:04.128Z,6.70
2023-04-28T04:11:08.106Z,7.43
2023-04-28T04:12:10.115Z,7.40
2023-04-28T04:13:11.927Z,7.60
2023-04-28T04:14:13.724Z,7.20
2023-04-28T04:15:15.447Z,7.30
2023-04-28T04:16:18.611Z,7.57
2023-04-28T04:17:20.028Z,8.60
2023-04-28T04:18:21.432Z,6.43
2023-04-28T04:19:46.226Z,7.40
2023-04-28T04:20:47.774Z,7.30
2023-04-28T04:21:49.447Z,7.30
2023-04-28T04:22:51.118Z,7.27
2023-04-28T04:23:52.588Z,6.80
2023-04-28T04:24:54.081Z,6.87
2023-04-28T04:25:56.670Z,7.77
2023-04-28T04:26:58.142Z,7.37
2023-04-28T04:28:06.231Z,6.70
2023-04-28T04:29:07.907Z,6.70
2023-04-28T04:30:10.040Z,7.23
2023-04-28T04:31:12.706Z,6.93
2023-04-28T04:32:14.220Z,7.40
2023-04-28T04:33:17.108Z,6.97
2023-04-28T04:34:18.898Z,6.97
2023-04-28T04:35:20.774Z,6.77
2023-04-28T04:36:23.132Z,7.50
2023-04-28T04:37:25.152Z,6.80
2023-04-28T04:38:32.377Z,6.70
2023-04-28T04:39:40.043Z,6.47
2023-04-28T04:40:41.650Z,6.63
2023-04-28T04:41:43.937Z,7.37
2023-04-28T04:43:04.774Z,7.50
2023-04-28T04:44:14.275Z,7.20
2023-04-28T04:45:19.649Z,6.83
2023-04-28T04:46:23.765Z,7.17
2023-04-28T04:47:25.475Z,7.47
2023-04-28T04:48:27.289Z,6.87
2023-04-28T04:49:28.679Z,6.60
2023-04-28T04:50:30.804Z,6.87
2023-04-28T04:51:32.469Z,7.10
2023-04-28T04:52:33.999Z,6.87
2023-04-28T04:53:36.049Z,8.10
2023-04-28T04:54:37.656Z,6.57
2023-04-28T04:55:39.961Z,6.93
2023-04-28T04:56:42.757Z,6.87
2023-04-28T04:57:45.792Z,6.57
2023-04-28T04:58:51.860Z,7.03
2023-04-28T05:00:25.915Z,7.30
2023-04-28T05:01:28.825Z,7.63
2023-04-28T05:02:31.079Z,6.90
2023-04-28T05:03:33.304Z,6.77
2023-04-28T05:04:35.222Z,7.53
2023-04-28T05:05:37.064Z,7.10
2023-04-28T05:06:45.010Z,6.53
2023-04-28T05:07:46.798Z,6.43
2023-04-28T05:08:48.543Z,5.90
2023-04-28T05:09:50.125Z,6.50
2023-04-28T05:10:51.759Z,6.77
2023-04-28T05:11:54.339Z,6.57
2023-04-28T05:12:56.058Z,7.40
2023-04-28T05:13:57.618Z,6.47
2023-04-28T05:14:59.532Z,6.10
2023-04-28T05:16:01.045Z,5.57
2023-04-28T05:17:12.276Z,6.87
2023-04-28T05:18:15.974Z,5.73
2023-04-28T05:19:17.851Z,6.33
2023-04-28T05:20:19.469Z,6.17
2023-04-28T05:21:21.869Z,6.90
2023-04-28T05:22:23.379Z,5.60
2023-04-28T05:23:25.095Z,7.00
2023-04-28T05:24:26.802Z,5.93
2023-04-28T05:25:28.306Z,6.37
2023-04-28T05:26:30.223Z,6.23
2023-04-28T05:27:39.474Z,6.53
2023-04-28T05:28:41.943Z,5.80
2023-04-28T05:29:44.098Z,5.70
2023-04-28T05:30:46.416Z,6.50
2023-04-28T05:31:48.633Z,7.33
2023-04-28T05:32:51.255Z,6.23
2023-04-28T05:33:52.843Z,5.17
2023-04-28T05:34:54.525Z,5.77
2023-04-28T05:35:56.342Z,5.67
2023-04-28T05:36:58.451Z,6.23
2023-04-28T05:38:03.198Z,6.20
2023-04-28T05:39:05.204Z,6.07
2023-04-28T05:40:07.905Z,5.67
2023-04-28T05:41:09.656Z,6.10
2023-04-28T05:42:11.081Z,5.97
2023-04-28T05:43:12.773Z,6.10
2023-04-28T05:44:14.630Z,6.53
2023-04-28T05:45:16.425Z,5.73
2023-04-28T05:46:29.922Z,6.20
2023-04-28T05:47:33.202Z,6.90
2023-04-28T05:48:35.553Z,6.10
2023-04-28T05:49:37.869Z,6.53
2023-04-28T05:50:41.120Z,6.30
2023-04-28T05:51:42.728Z,6.47
2023-04-28T05:52:44.133Z,6.47
2023-04-28T05:53:48.814Z,6.40
2023-04-28T05:54:50.510Z,5.83
2023-04-28T05:55:52.500Z,6.27
2023-04-28T05:56:55.089Z,7.47
2023-04-28T05:57:56.881Z,6.80
2023-04-28T05:58:59.034Z,7.90
2023-04-28T06:00:00.638Z,6.67
2023-04-28T06:01:02.213Z,6.33
2023-04-28T06:02:03.708Z,6.57
2023-04-28T06:03:05.861Z,6.87
2023-04-28T06:04:07.954Z,6.33
2023-04-28T06:05:11.123Z,6.50
2023-04-28T06:06:13.648Z,6.37
2023-04-28T06:07:15.767Z,7.93
2023-04-28T06:08:17.522Z,6.37
2023-04-28T06:09:19.132Z,6.83
2023-04-28T06:10:22.876Z,7.83
2023-04-28T06:11:24.713Z,6.07
2023-04-28T06:12:26.737Z,5.77
2023-04-28T06:13:28.229Z,6.00
2023-04-28T06:14:29.694Z,5.97
2023-04-28T06:15:31.227Z,6.27
2023-04-28T06:16:32.716Z,6.10
2023-04-28T06:17:34.494Z,6.47
2023-04-28T06:18:36.728Z,6.70
2023-04-28T06:19:38.887Z,6.57
2023-04-28T06:20:40.622Z,5.93
2023-04-28T06:21:42.097Z,6.07
2023-04-28T06:22:43.788Z,6.10
2023-04-28T06:23:45.203Z,6.33
2023-04-28T06:24:47.824Z,6.40
2023-04-28T06:25:52.979Z,6.40
2023-04-28T06:26:54.775Z,6.17
2023-04-28T06:27:57.321Z,6.13
2023-04-28T06:28:59.517Z,6.90
2023-04-28T06:30:01.103Z,6.80
2023-04-28T06:31:03.218Z,6.57
2023-04-28T06:32:04.917Z,6.63
2023-04-28T06:33:06.690Z,7.00
2023-04-28T06:34:08.457Z,6.70
2023-04-28T06:35:10.851Z,6.47
2023-04-28T06:36:14.015Z,6.43
2023-04-28T06:37:15.711Z,6.40
2023-04-28T06:38:17.219Z,6.83
2023-04-28T06:39:18.786Z,6.13
2023-04-28T06:40:21.365Z,6.80
2023-04-28T06:41:29.602Z,7.10
2023-04-28T06:42:32.734Z,10.83
2023-04-28T06:43:46.684Z,6.03
2023-04-28T06:44:56.533Z,7.13
2023-04-28T06:45:58.277Z,6.40
2023-04-28T06:47:00.414Z,5.90
2023-04-28T06:48:02.278Z,6.57
2023-04-28T06:49:03.801Z,5.90
2023-04-28T06:50:05.847Z,7.70
2023-04-28T06:51:10.177Z,6.80
2023-04-28T06:52:11.654Z,6.63
2023-04-28T06:53:13.162Z,6.20
2023-04-28T06:54:15.093Z,6.90
2023-04-28T06:55:18.694Z,6.30
2023-04-28T06:56:20.491Z,6.63
2023-04-28T06:57:23.264Z,7.10
2023-04-28T06:58:24.880Z,6.70
2023-04-28T06:59:26.774Z,7.10
2023-04-28T07:00:28.285Z,7.47
2023-04-28T07:01:29.997Z,8.63
2023-04-28T07:02:32.113Z,6.20
2023-04-28T07:03:33.777Z,6.50
2023-04-28T07:04:35.276Z,5.90
2023-04-28T07:05:37.481Z,6.43
2023-04-28T07:06:39.513Z,6.93
2023-04-28T07:07:40.934Z,6.37
2023-04-28T07:08:43.615Z,6.60
2023-04-28T07:09:47.969Z,5.90
2023-04-28T07:10:50.176Z,5.90
2023-04-28T07:11:51.586Z,5.93
2023-04-28T07:12:53.011Z,6.50
2023-04-28T07:13:54.398Z,6.27
2023-04-28T07:14:56.484Z,5.97
2023-04-28T07:15:58.194Z,6.10
2023-04-28T07:16:59.723Z,5.37
2023-04-28T07:18:01.295Z,6.40
2023-04-28T07:19:03.037Z,5.40
2023-04-28T07:20:06.084Z,4.90
2023-04-28T07:21:07.442Z,4.70
2023-04-28T07:22:10.962Z,5.47
2023-04-28T07:23:12.384Z,5.30
2023-04-28T07:24:13.806Z,5.90
2023-04-28T07:25:15.837Z,5.33
2023-04-28T07:26:17.689Z,5.17
2023-04-28T07:27:19.140Z,5.50
2023-04-28T07:28:21.059Z,6.00
2023-04-28T07:29:22.495Z,5.53
2023-04-28T07:30:27.820Z,5.23
2023-04-28T07:31:30.517Z,5.90
2023-04-28T07:32:32.330Z,5.73
2023-04-28T07:33:33.789Z,5.53
2023-04-28T07:34:38.345Z,5.50
2023-04-28T07:35:40.052Z,5.37
2023-04-28T07:36:42.088Z,5.00
2023-04-28T07:37:43.766Z,5.70
2023-04-28T07:38:45.469Z,5.97
2023-04-28T07:39:47.356Z,5.77
2023-04-28T07:40:49.341Z,6.70
2023-04-28T07:41:51.309Z,5.80
2023-04-28T07:42:52.980Z,5.63
2023-04-28T07:43:54.469Z,5.80
2023-04-28T07:44:57.720Z,5.57
2023-04-28T07:45:59.566Z,6.17
2023-04-28T07:47:02.114Z,5.40
2023-04-28T07:48:03.836Z,4.83
2023-04-28T07:49:05.477Z,5.17
2023-04-28T07:50:07.877Z,5.27
2023-04-28T07:51:09.246Z,5.53
2023-04-28T07:52:11.514Z,5.27
2023-04-28T07:53:12.892Z,5.07
2023-04-28T07:54:16.039Z,5.93
2023-04-28T07:55:17.852Z,4.83
2023-04-28T07:56:19.688Z,5.10
2023-04-28T07:57:21.119Z,5.30
2023-04-28T07:58:22.608Z,5.10
2023-04-28T07:59:24.801Z,4.97
2023-04-28T08:00:26.473Z,5.10
2023-04-28T08:01:27.937Z,5.33
2023-04-28T08:02:29.588Z,4.93
2023-04-28T08:03:31.321Z,5.10
2023-04-28T08:04:35.437Z,5.20
2023-04-28T08:05:38.947Z,4.97
2023-04-28T08:06:40.837Z,5.30
2023-04-28T08:07:42.471Z,4.73
2023-04-28T08:08:43.991Z,4.30
2023-04-28T08:09:47.645Z,4.47
2023-04-28T08:10:50.679Z,4.60
2023-04-28T08:11:52.222Z,4.20
2023-04-28T08:12:54.319Z,4.40
2023-04-28T08:14:01.125Z,5.20
2023-04-28T08:15:02.563Z,4.77
2023-04-28T08:16:04.195Z,4.60
2023-04-28T08:17:05.750Z,4.03
2023-04-28T08:18:08.928Z,4.40
2023-04-28T08:19:10.763Z,4.43
2023-04-28T08:20:15.137Z,4.50
2023-04-28T08:21:16.571Z,4.50
2023-04-28T08:22:18.165Z,4.33
2023-04-28T08:23:20.416Z,4.10
2023-04-28T08:24:21.862Z,4.10
2023-04-28T08:25:23.924Z,3.70
2023-04-28T08:26:25.973Z,3.97
2023-04-28T08:27:27.935Z,3.90
2023-04-28T08:28:29.377Z,3.60
2023-04-28T08:29:31.887Z,3.43
2023-04-28T08:30:34.495Z,4.10
2023-04-28T08:31:36.375Z,3.50
2023-04-28T08:32:38.606Z,8.27
2023-04-28T08:33:44.535Z,3.30
2023-04-28T08:34:46.089Z,3.40
2023-04-28T08:35:47.532Z,3.47
2023-04-28T08:36:49.455Z,3.10
2023-04-28T08:37:52.735Z,3.63
2023-04-28T08:38:54.208Z,2.97
2023-04-28T08:40:02.129Z,3.70
2023-04-28T08:41:04.977Z,3.37
2023-04-28T08:42:06.731Z,3.63
2023-04-28T08:43:10.161Z,3.60
2023-04-28T08:44:12.165Z,3.53
2023-04-28T08:45:15.271Z,3.90
2023-04-28T08:46:21.377Z,4.10
2023-04-28T08:47:23.421Z,3.00
2023-04-28T08:48:26.660Z,4.23
2023-04-28T08:49:36.260Z,5.00
2023-04-28T08:50:40.007Z,4.03
2023-04-28T08:52:05.277Z,3.93
2023-04-28T08:53:07.456Z,4.13
2023-04-28T08:55:15.900Z,3.80
2023-04-28T08:56:18.983Z,3.90
2023-04-28T08:57:21.455Z,4.33
2023-04-28T08:58:27.390Z,4.80
2023-04-28T08:59:29.269Z,4.77
2023-04-28T09:00:31.402Z,4.80
2023-04-28T09:01:33.531Z,4.23
2023-04-28T09:03:39.540Z,4.20
2023-04-28T09:04:42.095Z,3.87
2023-04-28T09:05:44.013Z,3.97
2023-04-28T09:06:46.484Z,3.83
2023-04-28T09:07:50.269Z,4.30
2023-04-28T09:08:51.856Z,4.33
2023-04-28T09:10:16.761Z,4.30
2023-04-28T09:11:19.308Z,3.87
2023-04-28T09:12:22.042Z,4.30
2023-04-28T09:13:26.423Z,4.03
2023-04-28T09:14:29.428Z,3.97
2023-04-28T09:15:33.913Z,4.27
2023-04-28T09:16:41.956Z,4.27
2023-04-28T09:17:50.859Z,4.07
2023-04-28T09:18:58.536Z,3.50
2023-04-28T09:20:00.518Z,3.80
2023-04-28T09:21:05.479Z,3.50
2023-04-28T09:22:21.876Z,3.90
2023-04-28T09:23:26.758Z,3.30
2023-04-28T09:24:43.870Z,3.50
2023-04-28T09:26:02.479Z,3.40
2023-04-28T09:27:05.805Z,3.10
2023-04-28T09:28:23.414Z,3.07
2023-04-28T09:29:25.724Z,3.57
2023-04-28T09:30:42.686Z,2.90
2023-04-28T09:31:44.658Z,3.90
2023-04-28T09:32:47.372Z,3.70
2023-04-28T09:33:59.585Z,2.93
2023-04-28T09:35:01.695Z,2.53
2023-04-28T09:36:03.447Z,2.40
2023-04-28T09:37:19.901Z,3.43
2023-04-28T09:38:23.233Z,5.10
2023-04-28T09:39:31.636Z,3.67
2023-04-28T09:40:34.426Z,2.80
2023-04-28T09:41:40.756Z,3.20
2023-04-28T09:42:43.900Z,3.43
2023-04-28T09:43:45.360Z,2.80
2023-04-28T09:44:53.803Z,2.97
2023-04-28T09:45:57.035Z,3.27
2023-04-28T09:46:58.687Z,3.57
2023-04-28T09:48:11.108Z,3.20
2023-04-28T09:49:13.835Z,2.93
2023-04-28T09:50:17.494Z,2.77
2023-04-28T09:51:21.599Z,2.73
2023-04-28T09:52:24.652Z,2.63
2023-04-28T09:53:27.607Z,3.00
2023-04-28T09:54:31.043Z,3.30
2023-04-28T09:55:34.624Z,3.40
2023-04-28T09:56:42.498Z,3.70
2023-04-28T09:57:45.498Z,3.20
2023-04-28T09:58:50.437Z,3.33
2023-04-28T09:59:53.565Z,3.43
2023-04-28T10:00:57.948Z,2.83
2023-04-28T10:02:00.924Z,3.30
2023-04-28T10:03:09.538Z,3.10
2023-04-28T10:04:13.069Z,2.83
2023-04-28T10:05:17.214Z,4.73
2023-04-28T10:06:19.972Z,4.83
2023-04-28T10:07:22.078Z,3.50
2023-04-28T10:08:25.124Z,3.43
2023-04-28T10:09:28.873Z,2.87
2023-04-28T10:10:30.474Z,3.30
2023-04-28T10:11:33.979Z,3.00
2023-04-28T10:12:39.205Z,3.30
2023-04-28T10:13:42.863Z,3.17
2023-04-28T10:14:46.263Z,3.40
2023-04-28T10:15:49.563Z,2.90
2023-04-28T10:16:54.629Z,2.87
2023-04-28T10:17:56.591Z,2.90
2023-04-28T10:18:58.617Z,3.27
2023-04-28T10:20:00.682Z,3.37
2023-04-28T10:21:04.703Z,3.30
2023-04-28T10:22:24.405Z,3.20
2023-04-28T10:23:40.829Z,3.10
2023-04-28T10:25:15.062Z,2.97
2023-04-28T10:26:22.485Z,3.03
2023-04-28T10:27:30.062Z,33.70
2023-04-28T10:28:31.433Z,2.97
2023-04-28T10:29:33.806Z,2.93
2023-04-28T10:30:36.085Z,3.00
2023-04-28T10:31:37.585Z,3.20
2023-04-28T10:32:39.936Z,2.77
2023-04-28T10:33:42.270Z,2.70
2023-04-28T10:34:44.403Z,3.63
2023-04-28T10:35:47.616Z,2.90
2023-04-28T10:36:52.371Z,3.40
2023-04-28T10:38:11.077Z,2.77
2023-04-28T10:39:12.859Z,3.37
2023-04-28T10:40:45.854Z,2.90
2023-04-28T10:41:48.992Z,3.30
2023-04-28T10:42:56.819Z,2.70
2023-04-28T10:43:58.264Z,3.10
2023-04-28T10:44:59.957Z,2.90
2023-04-28T10:46:03.856Z,2.50
2023-04-28T10:47:10.173Z,3.10
2023-04-28T10:48:12.077Z,3.30
2023-04-28T10:49:13.579Z,2.90
2023-04-28T10:50:15.329Z,2.73
2023-04-28T10:51:16.873Z,2.70
2023-04-28T10:52:33.535Z,2.97
2023-04-28T10:53:47.633Z,3.30
2023-04-28T10:55:30.667Z,2.70
2023-04-28T10:56:32.786Z,2.57
2023-04-28T10:57:34.535Z,2.60
2023-04-28T10:58:41.731Z,2.13
2023-04-28T10:59:44.046Z,2.30
2023-04-28T11:00:48.638Z,2.30
2023-04-28T11:01:50.229Z,2.33
2023-04-28T11:02:51.992Z,2.30
2023-04-28T11:04:07.709Z,2.83
2023-04-28T11:05:13.374Z,2.43
2023-04-28T11:06:34.858Z,2.60
2023-04-28T11:07:37.035Z,2.37
2023-04-28T11:08:38.609Z,3.40
2023-04-28T11:09:41.835Z,2.70
2023-04-28T11:11:13.674Z,2.60
2023-04-28T11:12:19.173Z,2.37
2023-04-28T11:13:27.592Z,11.30
2023-04-28T11:14:30.083Z,2.37
2023-04-28T11:15:31.530Z,3.27
2023-04-28T11:16:34.728Z,2.83
2023-04-28T11:17:42.798Z,2.70
2023-04-28T11:18:56.046Z,2.57
2023-04-28T11:20:00.260Z,3.00
2023-04-28T11:21:01.698Z,2.90
2023-04-28T11:22:13.690Z,3.00
2023-04-28T11:23:15.801Z,2.93
2023-04-28T11:24:17.368Z,2.90
2023-04-28T11:25:19.071Z,2.93
2023-04-28T11:26:21.140Z,2.67
2023-04-28T11:27:30.810Z,2.87
2023-04-28T11:28:32.340Z,2.90
2023-04-28T11:29:39.275Z,3.00
2023-04-28T11:30:40.939Z,2.80
2023-04-28T11:31:53.637Z,3.20
2023-04-28T11:32:55.304Z,3.07
2023-04-28T11:34:05.752Z,3.13
2023-04-28T11:35:09.944Z,2.43
2023-04-28T11:36:26.917Z,4.37
2023-04-28T11:37:28.710Z,2.30
2023-04-28T11:38:30.469Z,2.40
2023-04-28T11:39:33.554Z,2.70
2023-04-28T11:40:35.617Z,2.50
2023-04-28T11:41:39.498Z,2.20
2023-04-28T11:42:50.533Z,2.23
2023-04-28T11:43:53.149Z,2.60
2023-04-28T11:44:55.233Z,2.37
2023-04-28T11:45:57.550Z,5.63
2023-04-28T11:47:01.649Z,2.30
2023-04-28T11:48:21.442Z,2.17
2023-04-28T11:49:30.538Z,2.60
2023-04-28T11:50:38.665Z,2.10
2023-04-28T11:51:40.164Z,2.40
2023-04-28T11:52:53.485Z,2.63
2023-04-28T11:53:55.538Z,2.60
2023-04-28T11:55:00.045Z,2.00
2023-04-28T11:56:10.775Z,2.20
2023-04-28T11:57:21.065Z,2.23
2023-04-28T11:58:24.868Z,2.83
2023-04-28T11:59:34.072Z,2.50
2023-04-28T12:00:35.687Z,2.73
2023-04-28T12:01:47.284Z,2.57
2023-04-28T12:02:49.220Z,2.90
2023-04-28T12:03:51.427Z,3.63
2023-04-28T12:04:52.942Z,2.47
2023-04-28T12:05:54.467Z,2.70
2023-04-28T12:07:07.878Z,2.80
2023-04-28T12:08:09.344Z,2.38
2023-04-28T12:09:18.809Z,2.65
2023-04-28T12:10:20.503Z,2.37
2023-04-28T12:11:22.745Z,3.75
2023-04-28T12:12:45.031Z,2.30
2023-04-28T12:14:10.086Z,2.53
2023-04-28T12:15:12.005Z,2.53
2023-04-28T12:16:13.948Z,2.47
2023-04-28T12:17:51.357Z,2.25
2023-04-28T12:19:03.267Z,3.10
2023-04-28T12:20:09.994Z,2.60
2023-04-28T12:21:21.702Z,2.42
2023-04-28T12:22:24.375Z,2.80
2023-04-28T12:23:36.339Z,2.73
2023-04-28T12:24:39.166Z,2.83
2023-04-28T12:25:45.807Z,2.60
2023-04-28T12:26:48.744Z,2.80
2023-04-28T12:28:02.610Z,3.17
2023-04-28T12:29:04.508Z,3.50
2023-04-28T12:30:20.971Z,3.00
2023-04-28T12:31:22.703Z,3.10
2023-04-28T12:32:41.311Z,3.03
2023-04-28T12:33:44.675Z,2.53
2023-04-28T12:34:47.049Z,3.35
2023-04-28T12:35:49.924Z,2.95
2023-04-28T12:36:51.764Z,2.80
2023-04-28T12:37:55.189Z,3.35
2023-04-28T12:38:56.828Z,3.43
2023-04-28T12:39:58.317Z,2.77
2023-04-28T12:41:00.462Z,3.08
2023-04-28T12:42:03.188Z,2.53
2023-04-28T12:43:04.629Z,2.75
2023-04-28T12:44:06.290Z,2.97
2023-04-28T12:45:11.278Z,3.08
2023-04-28T12:46:15.033Z,2.92
2023-04-28T12:47:20.433Z,2.85
2023-04-28T12:48:25.654Z,3.40
2023-04-28T12:49:28.724Z,3.03
2023-04-28T12:50:32.969Z,2.80
2023-04-28T12:51:36.552Z,2.97
2023-04-28T12:52:39.276Z,2.47
2023-04-28T12:53:41.646Z,2.50
2023-04-28T12:54:47.099Z,2.58
2023-04-28T12:55:49.719Z,2.70
2023-04-28T12:56:54.720Z,2.70
2023-04-28T12:57:56.881Z,2.63
2023-04-28T12:58:58.413Z,2.50
2023-04-28T12:59:59.883Z,2.65
2023-04-28T13:01:01.993Z,2.85
2023-04-28T13:02:03.971Z,2.53
2023-04-28T13:03:06.940Z,2.47
2023-04-28T13:04:09.847Z,2.53
2023-04-28T13:05:11.488Z,2.53
2023-04-28T13:06:13.044Z,2.47
2023-04-28T13:07:15.897Z,2.33
2023-04-28T13:08:17.428Z,3.00
2023-04-28T13:09:18.949Z,2.90
2023-04-28T13:10:22.540Z,2.78
2023-04-28T13:11:27.152Z,3.35
2023-04-28T13:12:29.392Z,2.47
2023-04-28T13:13:31.371Z,2.67
2023-04-28T13:14:33.267Z,2.53
2023-04-28T13:15:38.720Z,2.80
2023-04-28T13:16:40.701Z,2.80
2023-04-28T13:17:42.238Z,2.20
2023-04-28T13:18:43.872Z,2.73
2023-04-28T13:19:47.451Z,2.17
2023-04-28T13:20:49.420Z,2.85
2023-04-28T13:21:51.167Z,2.75
2023-04-28T13:22:52.776Z,2.60
2023-04-28T13:23:55.293Z,2.88
2023-04-28T13:24:56.760Z,2.42
2023-04-28T13:25:58.423Z,2.95
2023-04-28T13:26:59.931Z,2.47
2023-04-28T13:28:02.304Z,2.83
2023-04-28T13:29:04.578Z,2.85
2023-04-28T13:30:06.600Z,2.95
2023-04-28T13:31:08.891Z,2.33
2023-04-28T13:32:10.619Z,4.13
2023-04-28T13:33:12.701Z,2.78
2023-04-28T13:34:19.022Z,2.83
2023-04-28T13:35:21.045Z,2.50
2023-04-28T13:36:23.350Z,2.65
2023-04-28T13:37:24.733Z,2.55
2023-04-28T13:38:27.008Z,2.90
2023-04-28T13:39:29.019Z,2.78
2023-04-28T13:40:31.298Z,2.75
2023-04-28T13:41:32.842Z,2.40
2023-04-28T13:42:34.567Z,4.13
2023-04-28T13:43:36.177Z,2.78
2023-04-28T13:44:37.966Z,2.97
2023-04-28T13:45:40.387Z,2.60
2023-04-28T13:46:42.501Z,3.20
2023-04-28T13:47:44.420Z,2.92
2023-04-28T13:48:46.089Z,2.92
2023-04-28T13:49:48.649Z,2.50
2023-04-28T13:50:50.195Z,2.50
2023-04-28T13:51:51.684Z,2.85
2023-04-28T13:52:53.992Z,2.47
2023-04-28T13:53:55.468Z,2.80
2023-04-28T13:54:56.998Z,2.70
2023-04-28T13:55:58.790Z,2.75
2023-04-28T13:57:00.210Z,2.67
2023-04-28T13:58:04.716Z,2.50
2023-04-28T13:59:06.187Z,2.42
2023-04-28T14:00:09.038Z,3.65
2023-04-28T14:01:10.582Z,2.70
2023-04-28T14:02:12.284Z,2.75
2023-04-28T14:03:13.956Z,2.83
2023-04-28T14:04:15.812Z,3.47
2023-04-28T14:05:17.612Z,2.53
2023-04-28T14:06:19.585Z,2.70
2023-04-28T14:07:21.128Z,2.95
2023-04-28T14:08:24.419Z,2.88
2023-04-28T14:09:27.182Z,6.55
2023-04-28T14:10:28.816Z,2.63